Time;durP1;ratioP1;P1;durP2;ratioP2;P2;SDS_P1;SDS_P2;PMS_P1;PMS_P2;Temp;Humidity;BMP_temperature;BMP_pressure;BME280_temperature;BME280_humidity;BME280_pressure;Samples;Min_cycle;Max_cycle;Signal;HPM_P1;HPM_P2
2022/10/07 00:01:07;;;;;;;6.85;2.17;;;10.20;92.10;;;;;;4958548;28;20085;-75
2022/10/07 00:03:34;;;;;;;5.85;2.08;;;10.30;91.80;;;;;;4954626;28;20117;-75
2022/10/07 00:06:10;;;;;;;2.05;1.70;;;10.30;91.60;;;;;;4955200;28;20118;-75
2022/10/07 00:08:36;;;;;;;;;;;10.30;91.80;;;;;;4954568;28;20031;-75
2022/10/07 00:11:05;;;;;;;6.05;2.10;;;10.30;91.90;;;;;;4957713;28;19910;-75
2022/10/07 00:13:31;;;;;;;3.92;1.85;;;10.30;92.00;;;;;;4956011;28;20039;-75
2022/10/07 00:16:28;;;;;;;1.98;1.55;;;10.30;92.00;;;;;;4950535;28;20914;-76
2022/10/07 00:18:57;;;;;;;2.95;1.88;;;10.30;92.20;;;;;;4955878;28;20042;-75
2022/10/07 00:21:28;;;;;;;5.20;2.15;;;10.40;91.70;;;;;;4958264;28;20038;-75
2022/10/07 00:23:54;;;;;;;5.20;1.98;;;10.40;91.00;;;;;;4952977;28;20117;-75
2022/10/07 00:26:22;;;;;;;3.83;2.05;;;10.40;91.00;;;;;;4960415;28;20034;-75
2022/10/07 00:28:48;;;;;;;3.83;1.90;;;10.30;91.40;;;;;;4964048;28;20046;-75
2022/10/07 00:31:19;;;;;;;6.30;1.95;;;10.40;91.80;;;;;;4952101;28;20407;-76
2022/10/07 00:33:46;;;;;;;7.80;2.35;;;10.30;91.90;;;;;;4964215;28;20054;-75
2022/10/07 00:36:19;;;;;;;4.63;2.22;;;10.40;92.00;;;;;;4958198;28;20031;-76
2022/10/07 00:38:50;;;;;;;7.28;2.50;;;10.40;91.20;;;;;;4956655;28;20529;-76
2022/10/07 00:41:19;;;;;;;4.93;2.00;;;10.30;90.90;;;;;;4956832;28;20130;-76
2022/10/07 00:43:45;;;;;;;3.53;1.65;;;10.30;91.00;;;;;;4955687;28;20555;-76
2022/10/07 00:46:23;;;;;;;7.22;1.73;;;10.20;91.00;;;;;;4962079;28;20030;-75
2022/10/07 00:48:49;;;;;;;6.05;2.47;;;10.20;91.10;;;;;;4954969;28;20043;-76
2022/10/07 00:51:15;;;;;;;7.25;1.85;;;10.10;91.30;;;;;;4972006;28;20070;-76
2022/10/07 00:53:45;;;;;;;6.43;2.20;;;10.20;91.50;;;;;;4957252;28;20031;-75
2022/10/07 00:56:11;;;;;;;5.82;2.50;;;10.10;91.40;;;;;;4958514;28;20034;-75
2022/10/07 00:58:40;;;;;;;7.10;2.15;;;10.10;91.50;;;;;;4963550;28;20764;-75
2022/10/07 01:01:07;;;;;;;10.05;2.25;;;10.10;91.80;;;;;;4954984;28;20769;-76
2022/10/07 01:03:34;;;;;;;7.32;2.10;;;10.00;92.30;;;;;;4962114;28;20624;-75
2022/10/07 01:06:04;;;;;;;3.00;1.73;;;10.00;92.30;;;;;;4957085;28;20050;-75
2022/10/07 01:08:31;;;;;;;7.38;2.10;;;10.10;92.30;;;;;;4959632;28;20031;-75
2022/10/07 01:11:18;;;;;;;7.78;2.75;;;10.10;92.20;;;;;;4956537;28;20455;-75
2022/10/07 01:14:10;;;;;;;4.57;1.95;;;10.10;91.80;;;;;;4957089;28;20034;-75
2022/10/07 01:17:22;;;;;;;5.07;2.28;;;10.00;91.40;;;;;;4955985;28;20765;-75
2022/10/07 01:20:15;;;;;;;4.25;2.10;;;9.90;91.50;;;;;;4935018;28;20040;-75
2022/10/07 01:22:56;;;;;;;6.57;2.25;;;9.90;91.90;;;;;;4957431;28;20765;-75
2022/10/07 01:25:48;;;;;;;5.85;1.73;;;9.80;92.00;;;;;;4954738;28;20046;-75
2022/10/07 01:28:29;;;;;;;5.45;2.00;;;9.90;92.10;;;;;;4948633;28;20039;-75
2022/10/07 01:30:59;;;;;;;5.63;2.30;;;9.80;92.20;;;;;;4963181;28;20038;-75
2022/10/07 01:33:29;;;;;;;2.65;1.73;;;9.80;92.30;;;;;;4962834;28;20517;-75
2022/10/07 01:35:57;;;;;;;5.30;2.28;;;9.80;92.50;;;;;;4955614;28;20043;-75
2022/10/07 01:38:25;;;;;;;5.65;1.92;;;9.80;92.60;;;;;;4960370;28;20585;-75
2022/10/07 01:40:56;;;;;;;6.03;2.38;;;9.80;92.50;;;;;;4950233;28;20049;-76
2022/10/07 01:43:23;;;;;;;5.22;1.80;;;9.80;92.50;;;;;;4961797;28;20483;-75
2022/10/07 01:45:51;;;;;;;6.75;2.20;;;9.80;92.40;;;;;;4956597;28;20035;-75
2022/10/07 01:48:17;;;;;;;8.00;2.20;;;9.80;92.30;;;;;;4962548;28;20043;-76
2022/10/07 01:50:45;;;;;;;5.50;2.30;;;9.80;92.40;;;;;;4964386;28;20035;-75
2022/10/07 01:53:23;;;;;;;4.07;2.05;;;9.80;92.40;;;;;;4958655;28;20387;-75
2022/10/07 01:56:30;;;;;;;4.20;2.00;;;9.80;92.50;;;;;;4954582;28;20039;-75
2022/10/07 01:59:10;;;;;;;8.52;1.90;;;9.80;92.50;;;;;;4934314;28;20039;-75
2022/10/07 02:02:03;;;;;;;5.30;2.00;;;9.80;92.60;;;;;;4953631;28;20026;-75
2022/10/07 02:04:42;;;;;;;6.63;2.00;;;9.80;92.50;;;;;;4958628;28;20118;-76
2022/10/07 02:07:41;;;;;;;4.55;2.20;;;9.70;92.60;;;;;;4976639;28;20038;-76
2022/10/07 02:10:34;;;;;;;2.45;1.58;;;9.80;92.60;;;;;;4959709;28;20226;-75
2022/10/07 02:13:11;;;;;;;4.60;1.70;;;9.80;92.50;;;;;;4955312;28;20041;-76
2022/10/07 02:16:16;;;;;;;4.25;1.98;;;9.70;92.50;;;;;;4947421;28;20410;-75
2022/10/07 02:18:47;;;;;;;4.75;2.00;;;9.80;92.50;;;;;;4967449;28;20035;-75
2022/10/07 02:21:14;;;;;;;5.65;2.33;;;9.70;92.40;;;;;;4960239;28;20777;-75
2022/10/07 02:23:43;;;;;;;5.53;2.42;;;9.70;92.50;;;;;;4956098;28;20081;-75
2022/10/07 02:26:12;;;;;;;7.13;2.45;;;9.80;92.40;;;;;;4953571;28;20496;-75
2022/10/07 02:28:41;;;;;;;4.85;2.00;;;9.70;92.40;;;;;;4957021;28;20118;-75
2022/10/07 02:31:13;;;;;;;5.65;2.33;;;9.70;92.40;;;;;;4952044;28;20062;-75
2022/10/07 02:33:41;;;;;;;4.20;1.98;;;9.70;92.40;;;;;;4952289;28;20089;-75
2022/10/07 02:36:22;;;;;;;3.55;2.10;;;9.70;92.40;;;;;;4950304;28;20117;-75
2022/10/07 02:38:48;;;;;;;5.78;1.92;;;9.70;92.40;;;;;;4953897;28;20039;-76
2022/10/07 02:41:39;;;;;;;8.45;2.17;;;9.70;92.50;;;;;;4950520;28;20844;-76
2022/10/07 02:44:29;;;;;;;5.82;2.15;;;9.60;92.50;;;;;;4951026;28;20033;-76
2022/10/07 02:47:13;;;;;;;7.20;2.28;;;9.60;92.50;;;;;;4975245;28;20112;-75
2022/10/07 02:49:42;;;;;;;7.40;2.80;;;9.60;92.50;;;;;;4958787;28;20092;-76
2022/10/07 02:52:17;;;;;;;8.00;2.92;;;9.60;92.50;;;;;;4960365;28;20027;-75
2022/10/07 02:54:51;;;;;;;4.03;2.03;;;9.60;92.40;;;;;;4961240;28;20030;-75
2022/10/07 02:57:18;;;;;;;4.32;2.40;;;9.50;92.50;;;;;;4972721;28;20122;-75
2022/10/07 02:59:47;;;;;;;5.95;2.65;;;9.50;92.50;;;;;;4952703;28;20034;-75
2022/10/07 03:02:39;;;;;;;3.65;1.95;;;9.50;92.50;;;;;;4948989;28;20035;-75
2022/10/07 03:05:08;;;;;;;3.35;1.92;;;9.50;92.60;;;;;;4951116;28;20034;-75
2022/10/07 03:07:35;;;;;;;4.90;2.25;;;9.40;92.70;;;;;;4957328;28;20037;-75
2022/10/07 03:10:05;;;;;;;4.70;2.38;;;9.40;92.60;;;;;;4957971;28;20031;-75
2022/10/07 03:12:31;;;;;;;7.28;2.30;;;9.40;92.70;;;;;;4958279;28;20081;-75
2022/10/07 03:14:57;;;;;;;5.32;2.42;;;9.40;92.70;;;;;;4957528;28;20043;-75
2022/10/07 03:17:22;;;;;;;6.20;2.78;;;9.30;92.60;;;;;;4959016;28;20046;-75
2022/10/07 03:19:48;;;;;;;2.85;2.05;;;9.30;92.60;;;;;;4960037;28;20109;-75
2022/10/07 03:22:14;;;;;;;3.22;2.28;;;9.30;92.50;;;;;;4961123;28;20462;-75
2022/10/07 03:24:42;;;;;;;5.07;2.15;;;9.30;92.60;;;;;;4959979;28;20029;-75
2022/10/07 03:27:08;;;;;;;8.07;3.47;;;9.20;92.60;;;;;;4959229;28;20035;-75
2022/10/07 03:29:35;;;;;;;3.63;2.20;;;9.20;92.80;;;;;;4951437;28;20033;-75
2022/10/07 03:32:02;;;;;;;3.70;2.05;;;9.20;92.80;;;;;;4961393;28;20039;-75
2022/10/07 03:34:30;;;;;;;5.15;2.67;;;9.20;92.90;;;;;;4966383;28;20035;-75
2022/10/07 03:36:57;;;;;;;7.20;2.65;;;9.20;92.90;;;;;;4966331;28;20039;-75
2022/10/07 03:39:23;;;;;;;8.40;2.67;;;9.20;92.80;;;;;;4959779;28;20035;-75
2022/10/07 03:41:50;;;;;;;6.70;2.33;;;9.20;92.80;;;;;;4974554;28;20129;-75
2022/10/07 03:44:18;;;;;;;4.50;2.33;;;9.20;92.80;;;;;;4957471;28;20419;-75
2022/10/07 03:46:48;;;;;;;7.25;2.65;;;9.10;92.80;;;;;;4961467;28;20025;-75
2022/10/07 03:49:14;;;;;;;7.40;2.70;;;9.20;92.80;;;;;;4958291;28;20478;-75
2022/10/07 03:51:40;;;;;;;8.30;2.60;;;9.10;92.70;;;;;;4955222;28;20039;-75
2022/10/07 03:54:07;;;;;;;7.28;3.00;;;9.10;92.60;;;;;;4950991;28;20039;-75
2022/10/07 03:56:34;;;;;;;6.80;2.80;;;9.10;92.70;;;;;;4961002;28;20038;-75
2022/10/07 03:59:00;;;;;;;10.68;3.95;;;9.10;92.70;;;;;;4958711;28;20030;-75
2022/10/07 04:01:30;;;;;;;10.73;3.15;;;9.10;92.60;;;;;;4953514;28;20034;-75
2022/10/07 04:07:48;;;;;;;11.00;3.00;;;9.00;93.00;;;;;;4955609;28;20991;-75
2022/10/07 04:10:17;;;;;;;5.07;3.08;;;9.00;93.00;;;;;;4971652;28;20035;-76
2022/10/07 04:12:44;;;;;;;6.07;2.25;;;9.00;93.00;;;;;;4958807;28;20087;-75
2022/10/07 04:15:14;;;;;;;6.50;2.70;;;9.00;93.00;;;;;;4960702;28;20038;-75
2022/10/07 04:17:44;;;;;;;5.38;3.20;;;9.00;92.80;;;;;;4951810;28;20403;-75
2022/10/07 04:20:12;;;;;;;5.88;2.78;;;8.90;92.80;;;;;;4963043;28;20390;-75
2022/10/07 04:22:38;;;;;;;8.63;3.05;;;8.90;92.80;;;;;;4959559;28;20134;-75
2022/10/07 04:27:57;;;;;;;6.97;3.20;;;8.90;93.00;;;;;;4959464;28;20036;-75
2022/10/07 04:30:27;;;;;;;6.22;3.50;;;8.90;93.10;;;;;;4955694;28;20031;-75
2022/10/07 04:32:53;;;;;;;6.32;2.85;;;8.90;93.10;;;;;;4957619;28;20063;-75
2022/10/07 04:35:22;;;;;;;7.60;2.92;;;8.90;93.20;;;;;;4952457;28;20034;-76
2022/10/07 04:37:52;;;;;;;5.78;2.88;;;8.90;93.10;;;;;;4955016;28;20042;-75
2022/10/07 04:40:21;;;;;;;8.00;2.78;;;8.90;93.40;;;;;;4956728;28;20038;-75
2022/10/07 04:45:34;;;;;;;9.30;3.08;;;8.90;93.00;;;;;;4957481;28;20112;-76
2022/10/07 04:48:01;;;;;;;4.88;2.75;;;8.90;93.10;;;;;;4954944;28;20038;-75
2022/10/07 04:50:28;;;;;;;7.75;3.03;;;8.90;93.00;;;;;;4956632;28;20055;-75
2022/10/07 04:52:57;;;;;;;7.65;3.10;;;8.80;93.10;;;;;;4957398;28;20036;-76
2022/10/07 04:55:25;;;;;;;5.60;2.80;;;8.90;93.10;;;;;;4959705;28;20459;-75
2022/10/07 04:57:51;;;;;;;7.72;3.00;;;8.90;93.10;;;;;;4958621;28;20585;-75
2022/10/07 05:00:17;;;;;;;5.40;2.70;;;8.80;93.10;;;;;;4954226;28;20035;-75
2022/10/07 05:02:49;;;;;;;6.55;2.67;;;8.80;93.00;;;;;;4954635;28;20038;-75
2022/10/07 05:05:16;;;;;;;9.10;2.90;;;8.80;92.90;;;;;;4953980;28;20035;-75
2022/10/07 05:07:43;;;;;;;7.03;2.65;;;8.80;92.90;;;;;;4960495;28;20027;-75
2022/10/07 05:10:09;;;;;;;7.00;2.80;;;8.80;93.00;;;;;;4961077;28;20115;-75
2022/10/07 05:12:36;;;;;;;9.82;3.30;;;8.80;93.00;;;;;;4957973;28;20035;-75
2022/10/07 05:15:03;;;;;;;8.07;2.92;;;8.70;93.10;;;;;;4972363;28;20034;-75
2022/10/07 05:17:30;;;;;;;8.27;3.22;;;8.70;93.30;;;;;;4975352;28;20039;-75
2022/10/07 05:19:55;;;;;;;6.60;3.35;;;8.70;93.20;;;;;;4959514;28;20050;-75
2022/10/07 05:22:21;;;;;;;5.38;3.28;;;8.70;93.20;;;;;;4965741;28;20027;-76
2022/10/07 05:24:47;;;;;;;6.05;3.30;;;8.70;93.20;;;;;;4958504;28;20039;-75
2022/10/07 05:27:14;;;;;;;9.60;3.13;;;8.70;93.10;;;;;;4960877;28;20031;-75
2022/10/07 05:29:40;;;;;;;4.40;3.03;;;8.70;93.10;;;;;;4961409;28;20034;-75
2022/10/07 05:32:06;;;;;;;4.75;3.10;;;8.60;93.00;;;;;;4961372;28;20035;-75
2022/10/07 05:34:32;;;;;;;11.55;4.07;;;8.70;93.20;;;;;;4957635;28;20026;-75
2022/10/07 05:36:58;;;;;;;6.65;3.13;;;8.70;93.20;;;;;;4952059;28;20545;-75
2022/10/07 05:39:25;;;;;;;7.60;3.10;;;8.70;93.20;;;;;;4960918;28;20051;-75
2022/10/07 05:41:55;;;;;;;11.00;3.42;;;8.70;93.20;;;;;;4962043;28;20038;-75
2022/10/07 05:44:25;;;;;;;6.20;3.22;;;8.70;93.30;;;;;;4977492;28;20846;-75
2022/10/07 05:46:54;;;;;;;9.40;3.35;;;8.70;93.40;;;;;;4960396;28;20050;-75
2022/10/07 05:49:20;;;;;;;13.45;3.78;;;8.70;93.50;;;;;;4955779;28;20050;-75
2022/10/07 05:51:46;;;;;;;6.13;3.40;;;8.70;93.40;;;;;;4950776;28;20043;-75
2022/10/07 05:54:12;;;;;;;7.20;3.58;;;8.70;93.50;;;;;;4969038;28;20035;-75
2022/10/07 05:56:41;;;;;;;8.43;3.00;;;8.70;93.50;;;;;;4956940;28;20027;-76
2022/10/07 05:59:07;;;;;;;7.45;2.88;;;8.70;93.60;;;;;;4972774;28;20038;-75
2022/10/07 06:01:33;;;;;;;4.68;3.50;;;8.70;93.50;;;;;;4972256;28;20506;-76
2022/10/07 06:04:06;;;;;;;3.95;3.08;;;8.80;93.60;;;;;;4958475;28;20022;-75
2022/10/07 06:06:35;;;;;;;8.50;3.72;;;8.80;93.60;;;;;;4957943;28;20023;-75
2022/10/07 06:14:36;;;;;;;;;;;8.90;93.50;;;;;;4955445;28;20054;-75
2022/10/07 06:17:03;;;;;;;9.65;3.38;;;8.90;93.50;;;;;;4961304;28;19969;-76
2022/10/07 06:19:29;;;;;;;6.25;3.83;;;8.90;93.60;;;;;;4963090;28;20408;-74
2022/10/07 06:21:59;;;;;;;5.72;2.97;;;8.90;93.80;;;;;;4960936;28;20027;-75
2022/10/07 06:24:26;;;;;;;6.80;3.50;;;9.00;93.70;;;;;;4960247;28;20116;-75
2022/10/07 06:26:54;;;;;;;5.75;3.45;;;9.00;94.10;;;;;;4961454;28;20150;-75
2022/10/07 06:29:21;;;;;;;6.80;3.00;;;9.00;93.80;;;;;;4960629;28;20407;-75
2022/10/07 06:31:47;;;;;;;8.32;4.20;;;9.10;94.00;;;;;;4960722;28;20064;-74
2022/10/07 06:34:12;;;;;;;7.35;3.80;;;9.20;94.00;;;;;;4963819;28;20194;-75
2022/10/07 06:36:38;;;;;;;4.35;3.25;;;9.20;93.90;;;;;;4957175;28;20042;-74
2022/10/07 06:39:04;;;;;;;8.65;3.70;;;9.30;93.90;;;;;;4965501;28;20045;-76
2022/10/07 06:41:35;;;;;;;12.52;3.83;;;9.40;94.10;;;;;;4956607;28;20110;-75
2022/10/07 06:44:21;;;;;;;6.28;4.22;;;9.40;94.00;;;;;;4943149;28;20109;-75
2022/10/07 06:46:48;;;;;;;8.13;3.25;;;9.50;93.80;;;;;;4961237;28;20601;-75
2022/10/07 06:49:14;;;;;;;6.25;4.57;;;9.50;93.80;;;;;;4952663;28;20114;-75
2022/10/07 06:51:40;;;;;;;6.90;3.78;;;9.60;93.80;;;;;;4958067;28;20323;-75
2022/10/07 06:54:06;;;;;;;8.10;4.00;;;9.70;93.80;;;;;;4953363;28;20094;-75
2022/10/07 06:56:32;;;;;;;8.43;3.85;;;9.70;93.80;;;;;;4959453;28;20031;-75
2022/10/07 06:59:02;;;;;;;7.63;3.58;;;9.80;93.90;;;;;;4958824;28;20091;-75
2022/10/07 07:01:38;;;;;;;8.52;4.32;;;9.80;93.90;;;;;;4959771;28;20446;-75
2022/10/07 07:04:04;;;;;;;6.63;4.03;;;9.90;93.80;;;;;;4970919;28;20038;-75
2022/10/07 07:06:34;;;;;;;9.00;3.80;;;10.10;93.70;;;;;;4954884;28;20831;-75
2022/10/07 07:09:03;;;;;;;8.60;3.90;;;10.20;93.60;;;;;;4960695;28;20035;-75
2022/10/07 07:11:35;;;;;;;14.13;4.20;;;10.30;93.30;;;;;;4954709;28;20038;-75
2022/10/07 07:14:10;;;;;;;9.05;4.45;;;10.40;93.10;;;;;;4960891;28;20050;-75
2022/10/07 07:16:39;;;;;;;8.60;4.22;;;10.40;93.30;;;;;;4958541;28;20042;-75
2022/10/07 07:19:07;;;;;;;7.53;3.72;;;10.50;93.10;;;;;;4957894;28;20062;-75
2022/10/07 07:21:37;;;;;;;5.55;3.85;;;10.60;93.00;;;;;;4957479;28;20027;-75
2022/10/07 07:24:04;;;;;;;10.20;3.95;;;10.80;92.80;;;;;;4959890;28;20038;-75
2022/10/07 07:26:31;;;;;;;9.27;4.13;;;10.90;92.60;;;;;;4951733;28;20902;-75
2022/10/07 07:29:01;;;;;;;10.98;3.47;;;11.00;92.60;;;;;;4958484;28;20035;-75
2022/10/07 07:31:33;;;;;;;8.90;3.97;;;11.10;92.40;;;;;;4968644;28;20039;-75
2022/10/07 07:34:01;;;;;;;14.77;3.85;;;11.30;92.00;;;;;;4952719;28;20039;-75
2022/10/07 07:36:30;;;;;;;8.25;4.25;;;11.40;91.90;;;;;;4955732;28;20100;-75
2022/10/07 07:38:59;;;;;;;10.65;4.60;;;11.60;91.40;;;;;;4954940;28;20492;-75
2022/10/07 07:41:31;;;;;;;7.55;3.70;;;11.70;90.90;;;;;;4956021;28;20097;-75
2022/10/07 07:44:01;;;;;;;7.95;2.90;;;11.70;91.00;;;;;;4963793;28;20045;-75
2022/10/07 07:46:33;;;;;;;11.25;3.75;;;11.80;91.00;;;;;;4953713;28;20031;-76
2022/10/07 07:48:58;;;;;;;7.97;2.92;;;11.90;90.90;;;;;;4957455;28;20081;-75
2022/10/07 07:51:25;;;;;;;7.35;3.35;;;12.00;90.60;;;;;;4956897;28;20030;-75
2022/10/07 07:53:52;;;;;;;7.93;3.10;;;12.10;90.50;;;;;;4957112;28;20035;-75
2022/10/07 07:56:19;;;;;;;12.05;3.33;;;12.20;90.40;;;;;;4958875;28;20039;-75
2022/10/07 07:58:46;;;;;;;11.90;4.07;;;12.20;90.50;;;;;;4949179;28;20036;-75
2022/10/07 08:01:15;;;;;;;7.53;3.35;;;12.40;90.30;;;;;;4968758;28;20031;-75
2022/10/07 08:03:45;;;;;;;6.85;2.85;;;12.60;90.10;;;;;;4974212;28;20145;-75
2022/10/07 08:06:15;;;;;;;8.93;3.20;;;12.60;89.40;;;;;;4956507;28;20588;-75
2022/10/07 08:08:42;;;;;;;9.18;3.85;;;12.70;88.90;;;;;;4956673;28;20120;-75
2022/10/07 08:11:11;;;;;;;8.27;3.20;;;12.80;88.80;;;;;;4957777;28;20035;-75
2022/10/07 08:13:40;;;;;;;9.93;3.40;;;12.90;88.10;;;;;;4953023;28;20134;-75
2022/10/07 08:16:13;;;;;;;12.93;3.63;;;13.00;87.90;;;;;;4958280;28;20085;-75
2022/10/07 08:18:40;;;;;;;9.20;3.53;;;13.00;87.60;;;;;;4958345;28;20029;-76
2022/10/07 08:21:08;;;;;;;9.88;3.10;;;13.10;87.10;;;;;;4957040;28;20412;-75
2022/10/07 08:23:38;;;;;;;11.07;2.90;;;13.20;86.30;;;;;;4955434;28;20026;-75
2022/10/07 08:26:06;;;;;;;9.23;3.22;;;13.20;86.70;;;;;;4957410;28;20485;-75
2022/10/07 08:28:33;;;;;;;9.85;3.40;;;13.40;85.80;;;;;;4950102;28;20796;-75
2022/10/07 08:31:07;;;;;;;8.68;2.90;;;13.50;86.40;;;;;;4955277;28;20138;-75
2022/10/07 08:33:35;;;;;;;7.10;2.70;;;13.70;85.40;;;;;;4954144;28;20050;-75
2022/10/07 08:36:03;;;;;;;3.40;2.20;;;13.80;85.40;;;;;;4954835;28;20034;-75
2022/10/07 08:38:34;;;;;;;12.02;2.55;;;14.00;85.00;;;;;;4952711;28;20043;-76
2022/10/07 08:41:20;;;;;;;9.50;3.00;;;14.10;84.00;;;;;;4959327;28;20035;-75
2022/10/07 08:43:48;;;;;;;7.07;2.67;;;14.20;83.60;;;;;;4952895;28;20158;-76
2022/10/07 08:46:25;;;;;;;7.05;2.75;;;14.40;83.30;;;;;;4963048;28;20501;-75
2022/10/07 08:49:04;;;;;;;14.95;4.13;;;14.60;82.20;;;;;;4956230;28;20046;-76
2022/10/07 08:51:39;;;;;;;12.15;3.55;;;14.70;82.20;;;;;;4962400;28;20038;-74
2022/10/07 08:54:09;;;;;;;5.90;2.38;;;14.90;81.60;;;;;;4964046;28;20645;-72
2022/10/07 08:56:35;;;;;;;6.45;2.80;;;15.00;81.00;;;;;;4961298;28;20045;-75
2022/10/07 08:59:21;;;;;;;10.07;2.47;;;15.20;80.80;;;;;;4959540;28;20035;-71
2022/10/07 09:01:53;;;;;;;6.45;2.33;;;15.40;80.40;;;;;;4957317;28;20037;-71
2022/10/07 09:04:55;;;;;;;4.15;1.88;;;15.60;79.60;;;;;;4952839;28;20050;-71
2022/10/07 09:07:30;;;;;;;10.50;2.38;;;15.80;77.60;;;;;;4960162;28;20058;-71
2022/10/07 09:10:08;;;;;;;3.47;2.08;;;15.90;77.20;;;;;;4961379;28;20101;-71
2022/10/07 09:12:51;;;;;;;7.93;1.92;;;16.10;77.80;;;;;;4950108;28;20051;-72
2022/10/07 09:15:48;;;;;;;5.38;2.20;;;16.20;77.00;;;;;;4954383;28;20035;-71
2022/10/07 09:18:18;;;;;;;6.20;2.08;;;16.40;75.10;;;;;;4957441;28;20585;-73
2022/10/07 09:20:52;;;;;;;6.40;1.83;;;16.60;74.00;;;;;;4956603;28;20027;-71
2022/10/07 09:23:24;;;;;;;7.78;2.40;;;16.60;74.40;;;;;;4957529;28;20041;-73
2022/10/07 09:25:50;;;;;;;6.15;1.95;;;16.70;73.60;;;;;;4955223;28;20602;-76
2022/10/07 09:28:20;;;;;;;4.68;1.55;;;16.80;74.00;;;;;;4956037;28;20137;-75
2022/10/07 09:30:46;;;;;;;7.40;2.30;;;17.00;73.00;;;;;;4958219;28;20034;-74
2022/10/07 09:33:19;;;;;;;5.32;1.58;;;17.20;73.20;;;;;;4952092;28;20034;-75
2022/10/07 09:35:52;;;;;;;7.78;1.88;;;17.30;70.60;;;;;;4957840;28;20460;-74
2022/10/07 09:38:52;;;;;;;8.93;1.30;;;17.40;71.80;;;;;;4956975;28;20085;-76
2022/10/07 09:41:35;;;;;;;6.00;1.45;;;17.70;67.90;;;;;;4949076;28;20058;-68
2022/10/07 09:44:16;;;;;;;5.95;1.50;;;17.80;67.90;;;;;;4961676;28;20031;-75
2022/10/07 09:46:53;;;;;;;5.10;1.80;;;17.80;67.40;;;;;;4972286;28;20030;-71
2022/10/07 09:49:41;;;;;;;4.30;1.20;;;17.90;68.80;;;;;;4956662;28;20038;-69
2022/10/07 09:52:13;;;;;;;5.50;1.30;;;18.10;65.90;;;;;;4959005;28;20117;-73
2022/10/07 09:54:40;;;;;;;8.50;1.40;;;18.10;66.50;;;;;;4955911;28;20070;-75
2022/10/07 09:57:21;;;;;;;8.20;1.92;;;18.30;64.80;;;;;;4958669;28;20370;-75
2022/10/07 09:59:47;;;;;;;4.28;1.40;;;18.40;64.80;;;;;;4956252;28;20042;-73
2022/10/07 10:02:13;;;;;;;8.88;1.88;;;18.40;65.80;;;;;;4958119;28;20042;-73
2022/10/07 10:04:51;;;;;;;7.53;1.30;;;18.50;65.60;;;;;;4958478;28;20872;-73
2022/10/07 10:07:30;;;;;;;4.82;1.10;;;19.20;63.30;;;;;;4956655;28;20034;-73
2022/10/07 10:10:02;;;;;;;6.75;1.45;;;20.60;58.10;;;;;;4955860;28;20034;-73
2022/10/07 10:12:36;;;;;;;3.58;1.30;;;22.10;54.40;;;;;;4958308;28;20038;-71
2022/10/07 10:15:21;;;;;;;3.58;1.30;;;23.40;50.60;;;;;;4958659;28;20043;-75
2022/10/07 10:17:48;;;;;;;5.28;1.70;;;23.40;48.10;;;;;;4957353;28;20101;-78
2022/10/07 10:20:28;;;;;;;12.27;1.42;;;22.40;50.90;;;;;;4957645;28;20034;-74
2022/10/07 10:22:55;;;;;;;6.93;1.52;;;21.80;53.20;;;;;;4961067;28;20133;-73
2022/10/07 10:28:35;;;;;;;8.05;1.45;;;21.60;56.70;;;;;;4951889;28;20031;-68
2022/10/07 10:31:45;;;;;;;5.65;1.60;;;22.00;53.80;;;;;;4957912;28;20050;-68
2022/10/07 10:34:26;;;;;;;7.85;1.83;;;23.00;52.40;;;;;;4939958;28;20081;-69
2022/10/07 10:37:17;;;;;;;6.72;1.60;;;24.70;48.60;;;;;;4954729;28;20031;-69
2022/10/07 10:39:56;;;;;;;7.00;1.58;;;26.60;43.70;;;;;;4950585;28;20031;-69
2022/10/07 10:42:34;;;;;;;4.70;1.80;;;28.00;41.20;;;;;;4955834;28;20090;-69
2022/10/07 10:45:13;;;;;;;5.55;1.45;;;29.10;39.40;;;;;;4956623;28;20035;-68
2022/10/07 10:48:01;;;;;;;4.65;1.30;;;29.50;37.90;;;;;;4953458;28;20039;-68
2022/10/07 10:50:42;;;;;;;5.95;1.67;;;29.00;38.60;;;;;;4958684;28;20038;-68
2022/10/07 10:53:33;;;;;;;5.07;1.30;;;28.50;38.90;;;;;;4958467;28;20069;-68
2022/10/07 10:56:14;;;;;;;5.55;1.60;;;27.20;41.60;;;;;;4954169;28;20038;-68
2022/10/07 10:58:59;;;;;;;6.35;1.50;;;26.00;43.00;;;;;;4958147;28;20031;-68
2022/10/07 11:01:32;;;;;;;5.47;1.45;;;24.40;44.70;;;;;;4955430;28;20137;-69
2022/10/07 11:04:25;;;;;;;8.13;1.75;;;23.30;48.90;;;;;;4952292;28;20093;-68
2022/10/07 11:07:29;;;;;;;4.95;1.38;;;22.40;50.40;;;;;;4956355;28;20031;-67
2022/10/07 11:09:59;;;;;;;13.82;1.75;;;21.80;52.70;;;;;;4956096;28;20133;-68
2022/10/07 11:12:35;;;;;;;8.60;1.52;;;21.10;53.30;;;;;;4951000;28;20042;-68
2022/10/07 11:15:12;;;;;;;5.18;1.58;;;20.90;53.80;;;;;;4955792;28;20125;-67
2022/10/07 11:17:39;;;;;;;6.05;1.60;;;20.80;53.90;;;;;;4949784;28;20039;-67
2022/10/07 11:20:41;;;;;;;2.55;1.15;;;20.70;54.30;;;;;;4960454;28;20046;-69
2022/10/07 11:23:12;;;;;;;3.58;1.40;;;20.50;55.30;;;;;;4952043;28;20085;-68
2022/10/07 11:25:48;;;;;;;4.22;1.42;;;20.50;54.20;;;;;;4955680;28;20063;-68
2022/10/07 11:28:20;;;;;;;4.38;1.20;;;20.40;54.80;;;;;;4952795;28;20150;-68
2022/10/07 11:31:00;;;;;;;9.48;1.95;;;20.50;55.30;;;;;;4960798;28;20105;-68
2022/10/07 11:33:38;;;;;;;8.75;1.55;;;20.50;55.20;;;;;;4958131;28;20030;-68
2022/10/07 11:36:47;;;;;;;7.60;1.10;;;20.40;54.50;;;;;;4955687;28;20094;-68
2022/10/07 11:39:13;;;;;;;6.93;1.63;;;20.40;53.10;;;;;;4957415;28;20074;-68
2022/10/07 11:42:00;;;;;;;4.93;1.98;;;20.30;55.10;;;;;;4954243;28;20145;-68
2022/10/07 11:44:59;;;;;;;3.05;1.40;;;20.30;55.70;;;;;;4958866;28;20038;-68
2022/10/07 11:47:38;;;;;;;5.38;1.30;;;20.20;53.80;;;;;;4957517;28;20508;-67
2022/10/07 11:50:14;;;;;;;4.47;1.20;;;20.20;55.20;;;;;;4952749;28;20672;-67
2022/10/07 11:52:44;;;;;;;4.30;1.00;;;20.30;53.30;;;;;;4959767;28;20057;-67
2022/10/07 11:55:40;;;;;;;4.07;1.63;;;20.30;53.00;;;;;;4954512;28;20031;-67
2022/10/07 11:58:38;;;;;;;4.80;1.20;;;20.40;53.20;;;;;;4948350;28;20040;-67
2022/10/07 12:01:29;;;;;;;4.82;0.95;;;20.30;53.20;;;;;;4953537;28;20534;-67
2022/10/07 12:04:01;;;;;;;5.03;1.45;;;20.30;52.60;;;;;;4954628;28;20043;-67
2022/10/07 12:06:27;;;;;;;4.53;1.58;;;20.30;53.10;;;;;;4955581;28;20491;-67
2022/10/07 12:08:53;;;;;;;4.68;2.10;;;20.20;52.90;;;;;;4958780;28;20038;-67
2022/10/07 12:11:21;;;;;;;5.10;1.67;;;20.10;52.80;;;;;;4952371;28;20118;-68
2022/10/07 12:13:53;;;;;;;6.80;1.45;;;20.00;53.60;;;;;;4958886;28;20042;-67
2022/10/07 12:16:31;;;;;;;4.00;1.17;;;19.90;52.80;;;;;;4957001;28;20043;-68
2022/10/07 12:19:18;;;;;;;5.85;0.90;;;20.00;53.00;;;;;;4960345;28;20039;-67
2022/10/07 12:22:01;;;;;;;4.05;1.38;;;20.10;52.40;;;;;;4958985;28;20134;-67
2022/10/07 12:24:35;;;;;;;3.90;1.20;;;20.10;53.20;;;;;;4959670;28;20043;-68
2022/10/07 12:27:12;;;;;;;4.45;1.10;;;20.10;51.90;;;;;;4954878;28;20113;-67
2022/10/07 12:29:57;;;;;;;4.60;1.10;;;20.20;52.50;;;;;;4957225;28;20041;-66
2022/10/07 12:32:44;;;;;;;5.32;1.70;;;20.30;51.60;;;;;;4957357;28;20042;-67
2022/10/07 12:35:28;;;;;;;4.88;1.20;;;20.30;53.00;;;;;;4954109;28;20039;-68
2022/10/07 12:38:28;;;;;;;3.00;1.02;;;20.30;51.60;;;;;;4961730;28;20050;-68
2022/10/07 12:41:10;;;;;;;4.68;1.17;;;20.10;51.90;;;;;;4941642;28;20062;-67
2022/10/07 12:43:36;;;;;;;4.70;1.02;;;20.20;50.60;;;;;;4954262;28;20409;-67
2022/10/07 12:46:08;;;;;;;3.53;0.90;;;20.10;50.00;;;;;;4955306;28;20027;-67
2022/10/07 12:48:41;;;;;;;2.00;1.02;;;20.00;51.00;;;;;;4955841;28;20393;-67
2022/10/07 12:51:18;;;;;;;2.67;1.20;;;19.90;50.80;;;;;;4956711;28;20611;-67
2022/10/07 12:53:46;;;;;;;4.75;1.58;;;19.90;51.70;;;;;;4962541;28;20042;-67
2022/10/07 12:56:20;;;;;;;4.28;1.67;;;19.90;52.30;;;;;;4956005;28;20042;-67
2022/10/07 13:02:41;;;;;;;6.13;2.55;;;19.80;49.70;;;;;;4960050;28;20039;-67
2022/10/07 13:05:55;;;;;;;3.97;1.83;;;19.60;51.10;;;;;;4957577;28;20035;-67
2022/10/07 13:08:39;;;;;;;6.28;1.60;;;19.60;50.70;;;;;;4923530;28;20411;-67
2022/10/07 13:11:04;;;;;;;5.68;1.30;;;19.70;51.10;;;;;;4958972;28;20510;-68
2022/10/07 13:13:39;;;;;;;5.53;1.00;;;19.70;50.20;;;;;;4961540;28;20030;-66
2022/10/07 13:16:30;;;;;;;2.97;1.27;;;19.60;50.60;;;;;;4962134;28;20035;-64
2022/10/07 13:19:02;;;;;;;6.47;1.10;;;19.50;52.70;;;;;;4953300;28;20039;-68
2022/10/07 13:21:34;;;;;;;5.07;1.23;;;19.40;52.20;;;;;;4959966;28;20376;-69
2022/10/07 13:23:59;;;;;;;5.13;1.08;;;19.60;51.20;;;;;;4953879;28;20039;-68
2022/10/07 13:26:25;;;;;;;5.38;1.02;;;19.70;50.80;;;;;;4960215;28;20085;-67
2022/10/07 13:28:57;;;;;;;5.28;1.05;;;19.70;51.30;;;;;;4959561;28;20166;-67
2022/10/07 13:31:26;;;;;;;3.38;0.90;;;19.70;50.60;;;;;;4960146;28;20030;-68
2022/10/07 13:33:53;;;;;;;4.55;0.70;;;19.80;49.70;;;;;;4956805;28;20038;-68
2022/10/07 13:36:23;;;;;;;1.98;0.70;;;19.90;49.60;;;;;;4957527;28;20332;-67
2022/10/07 13:39:08;;;;;;;2.47;1.00;;;19.90;48.80;;;;;;4959774;28;20070;-65
2022/10/07 13:41:36;;;;;;;3.13;1.00;;;19.80;51.30;;;;;;4956172;28;20027;-68
2022/10/07 13:44:04;;;;;;;3.05;0.98;;;19.90;51.60;;;;;;4953864;28;20054;-67